createdAt,value
2017-02-27T00:00:26.746Z,1006.99
2017-02-27T00:01:26.760Z,1006.98
2017-02-27T00:02:26.802Z,1006.94
2017-02-27T00:03:26.824Z,1006.9
2017-02-27T00:04:26.867Z,1006.96
2017-02-27T00:05:26.895Z,1007
2017-02-27T00:06:26.927Z,1006.95
2017-02-27T00:07:26.957Z,1006.99
2017-02-27T00:08:26.988Z,1007
2017-02-27T00:09:27.015Z,1006.97
2017-02-27T00:10:27.048Z,1007
2017-02-27T00:11:27.079Z,1006.99
2017-02-27T00:12:27.108Z,1006.99
2017-02-27T00:13:27.139Z,1007.01
2017-02-27T00:14:27.166Z,1006.94
2017-02-27T00:15:27.199Z,1007.01
2017-02-27T00:16:27.227Z,1007.01
2017-02-27T00:17:27.259Z,1006.95
2017-02-27T00:18:27.287Z,1006.97
2017-02-27T00:19:27.319Z,1006.97
2017-02-27T00:20:27.338Z,1007.03
2017-02-27T00:21:27.380Z,1007
2017-02-27T00:22:27.409Z,1007.01
2017-02-27T00:23:27.438Z,1006.98
2017-02-27T00:24:27.468Z,1007.01
2017-02-27T00:25:27.500Z,1007.01
2017-02-27T00:26:27.533Z,1006.96
2017-02-27T00:27:27.561Z,1006.95
2017-02-27T00:28:27.590Z,1006.98
2017-02-27T00:29:27.623Z,1006.99
2017-02-27T00:30:27.653Z,1007.03
2017-02-27T00:31:27.686Z,1006.98
2017-02-27T00:32:27.714Z,1006.96
2017-02-27T00:33:27.743Z,1006.98
2017-02-27T00:34:27.760Z,1007
2017-02-27T00:35:27.802Z,1007
2017-02-27T00:36:27.834Z,1006.98
2017-02-27T00:37:27.865Z,1006.97
2017-02-27T00:38:27.894Z,1006.94
2017-02-27T00:39:27.927Z,1006.94
2017-02-27T00:40:27.956Z,1006.97
2017-02-27T00:41:27.984Z,1007.01
2017-02-27T00:42:28.014Z,1006.96
2017-02-27T00:43:28.045Z,1006.98
2017-02-27T00:44:28.076Z,1006.95
2017-02-27T00:45:28.107Z,1006.99
2017-02-27T00:46:28.134Z,1006.98
2017-02-27T00:47:28.170Z,1007.03
2017-02-27T00:48:28.197Z,1006.97
2017-02-27T00:49:28.225Z,1006.98
2017-02-27T00:50:28.255Z,1006.95
2017-02-27T00:51:28.288Z,1006.94
2017-02-27T00:52:28.317Z,1006.95
2017-02-27T00:53:28.345Z,1006.99
2017-02-27T00:54:28.376Z,1007.02
2017-02-27T00:55:28.408Z,1007.02
2017-02-27T00:56:28.437Z,1006.96
2017-02-27T00:57:28.472Z,1007.02
2017-02-27T00:58:28.500Z,1007.01
2017-02-27T00:59:28.529Z,1007.01
2017-02-27T01:00:28.562Z,1006.99
2017-02-27T01:01:28.591Z,1007
2017-02-27T01:02:28.621Z,1006.95
2017-02-27T01:03:28.653Z,1007.01
2017-02-27T01:04:28.677Z,1007.02
2017-02-27T01:05:28.710Z,1007.04
2017-02-27T01:06:28.740Z,1007.05
2017-02-27T01:07:28.773Z,1007.07
2017-02-27T01:08:28.792Z,1007.07
2017-02-27T01:09:28.839Z,1007.01
2017-02-27T01:10:28.860Z,1007.03
2017-02-27T01:11:28.889Z,1007.01
2017-02-27T01:12:28.924Z,1006.96
2017-02-27T01:13:28.952Z,1007.04
2017-02-27T01:14:28.983Z,1007.03
2017-02-27T01:15:29.012Z,1006.99
2017-02-27T01:16:29.040Z,1006.99
2017-02-27T01:17:29.075Z,1006.98
2017-02-27T01:18:29.104Z,1006.96
2017-02-27T01:19:29.132Z,1007.02
2017-02-27T01:20:29.162Z,1006.97
2017-02-27T01:21:29.192Z,1007.02
2017-02-27T01:22:29.223Z,1006.91
2017-02-27T01:23:29.253Z,1006.97
2017-02-27T01:24:29.285Z,1006.93
2017-02-27T01:25:29.314Z,1006.89
2017-02-27T01:26:29.343Z,1006.95
2017-02-27T01:27:29.377Z,1006.89
2017-02-27T01:28:29.406Z,1006.93
2017-02-27T01:29:29.437Z,1006.93
2017-02-27T01:30:29.465Z,1006.91
2017-02-27T01:31:29.493Z,1006.88
2017-02-27T01:32:29.525Z,1006.87
2017-02-27T01:33:29.551Z,1006.9
2017-02-27T01:34:29.584Z,1006.87
2017-02-27T17:34:16.058Z,995.56
2017-02-27T17:35:16.097Z,995.57
2017-02-27T17:36:16.144Z,995.58
2017-02-27T17:37:16.151Z,995.57
2017-02-27T17:38:16.170Z,995.58
2017-02-27T17:39:16.218Z,995.5
2017-02-27T17:40:16.248Z,995.46
2017-02-27T17:41:16.279Z,995.44
2017-02-27T17:42:16.311Z,995.38
2017-02-27T17:43:16.353Z,995.31
2017-02-27T17:44:16.373Z,995.34
2017-02-27T17:45:16.405Z,995.3
2017-02-27T17:46:16.437Z,995.27
2017-02-27T17:47:16.464Z,995.26
2017-02-27T17:48:16.491Z,995.27
2017-02-27T17:49:16.535Z,995.26
2017-02-27T17:50:16.544Z,995.24
2017-02-27T17:51:16.589Z,995.24
2017-02-27T17:52:16.619Z,995.21
2017-02-27T17:53:16.651Z,995.27
2017-02-27T17:54:16.682Z,995.17
2017-02-27T17:55:16.690Z,995.23
2017-02-27T17:56:16.748Z,995.21
2017-02-27T17:57:16.772Z,995.27
2017-02-27T17:58:16.804Z,995.29
2017-02-27T17:59:16.836Z,995.23
2017-02-27T18:00:16.853Z,995.18
2017-02-27T18:01:16.897Z,995.17
2017-02-27T18:02:16.927Z,995.1
2017-02-27T18:03:16.958Z,995.1
2017-02-27T18:04:16.993Z,995.14
2017-02-27T18:05:17.021Z,995.09
2017-02-27T18:06:17.055Z,995.17
2017-02-27T18:07:17.084Z,995.14
2017-02-27T18:08:17.113Z,995.09
2017-02-27T18:09:17.145Z,995.11
2017-02-27T18:10:17.172Z,995.1
2017-02-27T18:11:17.211Z,995.11
2017-02-27T18:12:17.233Z,995.13
2017-02-27T18:13:17.250Z,995.09
2017-02-27T18:14:17.501Z,995.09
2017-02-27T18:15:17.330Z,995.02
2017-02-27T18:16:17.357Z,995
2017-02-27T18:17:17.402Z,994.98
2017-02-27T18:18:17.417Z,994.99
2017-02-27T18:19:17.455Z,994.99
2017-02-27T18:20:17.484Z,994.95
2017-02-27T18:21:17.514Z,994.97
2017-02-27T18:22:17.544Z,994.9
2017-02-27T18:23:17.577Z,994.89
2017-02-27T18:24:17.604Z,994.85
2017-02-27T18:25:17.637Z,994.85
2017-02-27T18:26:17.671Z,994.86
2017-02-27T18:27:17.691Z,994.82
2017-02-27T18:28:17.725Z,994.88
2017-02-27T18:29:17.753Z,994.79
2017-02-27T18:30:17.789Z,994.81
2017-02-27T18:31:17.802Z,994.8
2017-02-27T18:32:17.847Z,994.84
2017-02-27T18:33:17.871Z,994.79
2017-02-27T18:34:17.908Z,994.76
2017-02-27T18:35:17.939Z,994.73
2017-02-27T18:36:17.971Z,994.71
2017-02-27T18:37:17.999Z,994.71
2017-02-27T18:38:18.230Z,994.72
2017-02-27T18:39:18.046Z,994.65
2017-02-27T18:40:18.297Z,994.62
2017-02-27T18:41:18.124Z,994.63
2017-02-27T18:42:18.163Z,994.58
2017-02-27T18:43:18.186Z,994.55
2017-02-27T18:44:18.222Z,994.57
2017-02-27T18:45:18.246Z,994.56
2017-02-27T18:46:18.277Z,994.6
2017-02-27T18:47:18.302Z,994.53
2017-02-27T18:48:18.338Z,994.56
2017-02-27T18:49:18.347Z,994.57
2017-02-27T18:50:18.392Z,994.55
2017-02-27T18:51:18.426Z,994.48
2017-02-27T18:52:18.453Z,994.45
2017-02-27T18:53:18.485Z,994.46
2017-02-27T18:54:18.518Z,994.46
2017-02-27T18:55:18.697Z,994.43
2017-02-27T18:56:18.582Z,994.47
2017-02-27T18:57:18.605Z,994.44
2017-02-27T18:58:18.641Z,994.43
2017-02-27T18:59:18.649Z,994.43
2017-02-27T19:00:18.693Z,994.42
2017-02-27T19:01:18.729Z,994.4
2017-02-27T19:02:18.760Z,994.42
2017-02-27T19:03:18.787Z,994.46
2017-02-27T19:04:18.817Z,994.42
2017-02-27T19:05:18.850Z,994.39
2017-02-27T19:06:18.899Z,994.46
2017-02-27T19:07:18.910Z,994.46
2017-02-27T19:08:18.926Z,994.43
2017-02-27T19:09:18.971Z,994.4
2017-02-27T19:10:19.000Z,994.44
2017-02-27T19:11:19.025Z,994.44
2017-02-27T19:12:19.044Z,994.39
2017-02-27T19:13:19.092Z,994.34
2017-02-27T19:14:19.117Z,994.33
2017-02-27T19:15:19.150Z,994.34
2017-02-27T19:16:19.184Z,994.27
2017-02-27T19:17:19.207Z,994.26
2017-02-27T19:18:19.241Z,994.21
2017-02-27T19:19:19.273Z,994.25
2017-02-27T19:20:19.292Z,994.27
2017-02-27T19:21:19.327Z,994.2
2017-02-27T19:22:19.356Z,994.18
2017-02-27T19:23:19.392Z,994.12
2017-02-27T19:24:19.420Z,994.09
2017-02-27T19:25:19.452Z,994.02
2017-02-27T19:26:19.462Z,994.09
2017-02-27T19:27:19.510Z,994.08
2017-02-27T19:28:19.540Z,994.05
2017-02-27T19:29:19.552Z,993.99
2017-02-27T19:30:19.600Z,993.94
2017-02-27T19:31:19.635Z,993.88
2017-02-27T19:32:19.647Z,993.91
2017-02-27T19:33:19.689Z,993.84
2017-02-27T19:34:19.717Z,993.82
2017-02-27T19:35:19.747Z,993.79
2017-02-27T19:36:19.776Z,993.77
2017-02-27T19:37:19.805Z,993.69
2017-02-27T19:38:19.838Z,993.78
2017-02-27T19:39:19.870Z,993.76
2017-02-27T19:40:19.897Z,993.71
2017-02-27T19:41:19.934Z,993.74
2017-02-27T19:42:19.958Z,993.69
2017-02-27T19:43:19.968Z,993.69
2017-02-27T19:44:20.024Z,993.69
2017-02-27T19:45:20.046Z,993.72
2017-02-27T19:46:20.210Z,993.7
2017-02-27T19:47:20.103Z,993.71
2017-02-27T19:48:20.145Z,993.72
2017-02-27T19:49:20.166Z,993.72
2017-02-27T19:50:20.192Z,993.72
2017-02-27T19:51:20.215Z,993.7
2017-02-27T19:52:20.255Z,993.69
2017-02-27T19:53:20.289Z,993.69
2017-02-27T19:54:20.309Z,993.7
2017-02-27T19:55:20.340Z,993.67
2017-02-27T19:56:20.372Z,993.68
2017-02-27T19:57:20.401Z,993.59
2017-02-27T19:58:20.434Z,993.54
2017-02-27T19:59:20.458Z,993.54
2017-02-27T20:00:20.465Z,993.51
2017-02-27T20:01:20.514Z,993.54
2017-02-27T20:02:20.546Z,993.52
2017-02-27T20:03:20.575Z,993.48
2017-02-27T20:04:20.605Z,993.47
2017-02-27T20:05:20.635Z,993.51
2017-02-27T20:06:20.647Z,993.52
2017-02-27T20:07:20.692Z,993.48
2017-02-27T20:08:20.721Z,993.49
2017-02-27T20:09:20.756Z,993.45
2017-02-27T20:10:20.783Z,993.46
2017-02-27T20:11:20.824Z,993.41
2017-02-27T20:12:20.843Z,993.37
2017-02-27T20:13:20.869Z,993.39
2017-02-27T20:14:20.901Z,993.36
2017-02-27T20:15:20.928Z,993.35
2017-02-27T20:16:20.957Z,993.31
2017-02-27T20:17:20.973Z,993.31
2017-02-27T20:18:21.019Z,993.35
2017-02-27T20:19:21.040Z,993.32
2017-02-27T20:20:21.071Z,993.33
2017-02-27T20:21:21.116Z,993.34
2017-02-27T20:22:21.118Z,993.32
2017-02-27T20:23:21.165Z,993.3
2017-02-27T20:24:21.194Z,993.28
2017-02-27T20:25:21.218Z,993.32
2017-02-27T20:26:21.253Z,993.3
2017-02-27T20:27:21.275Z,993.26
2017-02-27T20:28:21.327Z,993.26
2017-02-27T20:29:21.329Z,993.21
2017-02-27T20:30:21.369Z,993.16
2017-02-27T20:31:21.394Z,993.17
2017-02-27T20:32:21.428Z,993.14
2017-02-27T20:33:21.453Z,993.13
2017-02-27T20:34:21.468Z,993.21
2017-02-27T20:35:21.513Z,993.19
2017-02-27T20:36:21.541Z,993.21
2017-02-27T20:37:21.572Z,993.18
2017-02-27T20:38:21.599Z,993.14
2017-02-27T20:39:21.628Z,993.16
2017-02-27T20:40:21.660Z,993.15
2017-02-27T20:41:21.690Z,993.11
2017-02-27T20:42:21.715Z,993.06
2017-02-27T20:43:21.747Z,993.06
2017-02-27T20:44:21.775Z,992.99
2017-02-27T20:45:21.785Z,992.88
2017-02-27T20:46:21.836Z,992.93
2017-02-27T20:47:21.868Z,992.9
2017-02-27T20:48:21.897Z,992.9
2017-02-27T20:49:21.925Z,992.87
2017-02-27T20:50:21.946Z,992.81
2017-02-27T20:51:21.978Z,992.85
2017-02-27T20:52:22.008Z,992.83
2017-02-27T20:53:22.041Z,992.86
2017-02-27T20:54:22.067Z,992.79
2017-02-27T20:55:22.094Z,992.77
2017-02-27T20:56:22.128Z,992.77
2017-02-27T20:57:22.156Z,992.76
2017-02-27T20:58:22.198Z,992.77
2017-02-27T20:59:22.228Z,992.76
2017-02-27T21:00:22.244Z,992.77
2017-02-27T21:01:22.272Z,992.74
2017-02-27T21:02:22.304Z,992.72
2017-02-27T21:03:22.338Z,992.67
2017-02-27T21:04:22.361Z,992.7
2017-02-27T21:05:22.372Z,992.72
2017-02-27T21:06:22.417Z,992.7
2017-02-27T21:07:22.488Z,992.65
2017-02-27T21:08:22.473Z,992.61
2017-02-27T21:09:22.503Z,992.66
2017-02-27T21:10:22.536Z,992.61
2017-02-27T21:11:22.561Z,992.62
2017-02-27T21:12:22.585Z,992.57
2017-02-27T21:13:22.620Z,992.58
2017-02-27T21:14:22.653Z,992.58
2017-02-27T21:15:22.679Z,992.58
2017-02-27T21:16:22.708Z,992.54
2017-02-27T21:17:22.735Z,992.52
2017-02-27T21:18:22.769Z,992.53
2017-02-27T21:19:22.779Z,992.48
2017-02-27T21:20:22.822Z,992.48
2017-02-27T21:21:22.853Z,992.52
2017-02-27T21:22:22.881Z,992.41
2017-02-27T21:23:22.910Z,992.39
2017-02-27T21:24:22.945Z,992.28
2017-02-27T21:25:22.973Z,992.24
2017-02-27T21:26:22.980Z,992.2
2017-02-27T21:27:23.026Z,992.25
2017-02-27T21:28:23.040Z,992.19
2017-02-27T21:29:23.066Z,992.17
2017-02-27T21:30:23.108Z,992.11
2017-02-27T21:31:23.147Z,992.06
2017-02-27T21:32:23.175Z,992.06
2017-02-27T21:33:23.202Z,991.99
2017-02-27T21:34:23.232Z,992
2017-02-27T21:35:23.257Z,992
2017-02-27T21:36:23.269Z,991.96
2017-02-27T21:37:23.320Z,991.98
2017-02-27T21:38:23.335Z,992.02
2017-02-27T21:39:23.379Z,991.99
2017-02-27T21:40:23.405Z,992
2017-02-27T21:41:23.431Z,991.98
2017-02-27T21:42:23.465Z,992.01
2017-02-27T21:43:23.482Z,991.93
2017-02-27T21:44:23.524Z,991.95
2017-02-27T21:45:23.552Z,991.92
2017-02-27T21:46:23.584Z,991.92
2017-02-27T21:47:23.609Z,991.8
2017-02-27T21:48:23.637Z,991.84
2017-02-27T21:49:23.669Z,991.86
2017-02-27T21:50:23.701Z,991.79
2017-02-27T21:51:23.724Z,991.86
2017-02-27T21:52:23.754Z,991.78
2017-02-27T21:53:23.788Z,991.76
2017-02-27T21:54:23.813Z,991.8
2017-02-27T21:55:23.848Z,991.77
2017-02-27T21:56:23.873Z,991.78
2017-02-27T21:57:23.889Z,991.77
2017-02-27T21:58:23.964Z,991.7
2017-02-27T21:59:23.941Z,991.67
2017-02-27T22:00:23.967Z,991.66
2017-02-27T22:01:24.035Z,991.59
2017-02-27T22:02:24.047Z,991.62
2017-02-27T22:03:24.078Z,991.58
2017-02-27T22:04:24.107Z,991.67
2017-02-27T22:05:24.137Z,991.59
2017-02-27T22:06:24.167Z,991.57
2017-02-27T22:07:24.194Z,991.59
2017-02-27T22:08:24.222Z,991.58
2017-02-27T22:09:24.253Z,991.56
2017-02-27T22:10:24.281Z,991.52
2017-02-27T22:11:24.312Z,991.46
2017-02-27T22:12:24.338Z,991.42
2017-02-27T22:13:24.371Z,991.42
2017-02-27T22:14:24.380Z,991.42
2017-02-27T22:15:24.426Z,991.39
2017-02-27T22:16:24.458Z,991.34
2017-02-27T22:17:24.484Z,991.33
2017-02-27T22:18:24.516Z,991.32
2017-02-27T22:19:24.547Z,991.36
2017-02-27T22:20:24.556Z,991.4
2017-02-27T22:21:24.619Z,991.34
2017-02-27T22:22:24.631Z,991.29
2017-02-27T22:23:24.666Z,991.36
2017-02-27T22:24:24.672Z,991.43
2017-02-27T22:25:24.718Z,991.31
2017-02-27T22:26:24.758Z,991.27
2017-02-27T22:27:24.781Z,991.26
2017-02-27T22:28:24.797Z,991.27
2017-02-27T22:29:24.834Z,991.16
2017-02-27T22:30:24.866Z,991.17
2017-02-27T22:31:24.896Z,991.18
2017-02-27T22:32:24.925Z,991.17
2017-02-27T22:33:24.953Z,991.17
2017-02-27T22:34:24.984Z,990.94
2017-02-27T22:35:25.020Z,990.96
2017-02-27T22:36:25.041Z,991.05
2017-02-27T22:37:25.087Z,991.08
2017-02-27T22:38:25.084Z,991.08
2017-02-27T22:39:25.127Z,990.99
2017-02-27T22:40:25.171Z,990.96
2017-02-27T22:41:25.166Z,990.96
2017-02-27T22:42:25.217Z,990.98
2017-02-27T22:43:25.244Z,991.02
2017-02-27T22:44:25.279Z,991.07
2017-02-27T22:45:25.305Z,990.99
2017-02-27T22:46:25.333Z,991.06
2017-02-27T22:47:25.371Z,990.98
2017-02-27T22:48:25.370Z,990.99
2017-02-27T22:49:25.399Z,990.95
2017-02-27T22:50:25.450Z,990.97
2017-02-27T22:51:25.479Z,991.05
2017-02-27T22:52:25.508Z,991.03
2017-02-27T22:53:25.538Z,990.96
2017-02-27T22:54:25.564Z,990.95
2017-02-27T22:55:25.599Z,990.93
2017-02-27T22:56:25.626Z,991.03
2017-02-27T22:57:25.654Z,990.98
2017-02-27T22:58:25.680Z,991.04
2017-02-27T22:59:25.708Z,991.02
2017-02-27T23:00:25.750Z,991
2017-02-27T23:01:25.768Z,990.95
2017-02-27T23:02:25.798Z,990.9
2017-02-27T23:03:25.845Z,990.88
2017-02-27T23:04:25.872Z,990.81
2017-02-27T23:05:25.890Z,990.8
2017-02-27T23:06:25.896Z,990.73
2017-02-27T23:07:25.947Z,990.74
2017-02-27T23:08:25.979Z,990.72
2017-02-27T23:09:26.005Z,990.71
2017-02-27T23:10:26.038Z,990.61
2017-02-27T23:11:26.065Z,990.59
2017-02-27T23:12:26.096Z,990.62
2017-02-27T23:13:26.122Z,990.57
2017-02-27T23:14:26.152Z,990.52
2017-02-27T23:15:26.181Z,990.56
2017-02-27T23:16:26.210Z,990.54
2017-02-27T23:17:26.242Z,990.53
2017-02-27T23:18:26.272Z,990.56
2017-02-27T23:19:26.301Z,990.66
2017-02-27T23:20:26.315Z,990.58
2017-02-27T23:21:26.359Z,990.48
2017-02-27T23:22:26.391Z,990.5
2017-02-27T23:23:26.403Z,990.46
2017-02-27T23:24:26.449Z,990.45
2017-02-27T23:25:26.480Z,990.44
2017-02-27T23:26:26.506Z,990.37
2017-02-27T23:27:26.538Z,990.46
2017-02-27T23:28:26.570Z,990.5
2017-02-27T23:29:26.599Z,990.42
2017-02-27T23:30:26.627Z,990.37
2017-02-27T23:31:26.661Z,990.41
2017-02-27T23:32:26.697Z,990.37
2017-02-27T23:33:26.713Z,990.37
2017-02-27T23:34:26.749Z,990.26
2017-02-27T23:35:26.774Z,990.28
2017-02-27T23:36:26.807Z,990.28
2017-02-27T23:37:26.839Z,990.35
2017-02-27T23:38:26.858Z,990.35
2017-02-27T23:39:26.897Z,990.26
2017-02-27T23:40:26.925Z,990.31
2017-02-27T23:41:26.956Z,990.33
2017-02-27T23:42:26.983Z,990.31
2017-02-27T23:43:26.994Z,990.36
2017-02-27T23:44:27.049Z,990.31
2017-02-27T23:45:27.070Z,990.27
2017-02-27T23:46:27.107Z,990.26
2017-02-27T23:47:27.130Z,990.27
2017-02-27T23:48:27.163Z,990.28
2017-02-27T23:49:27.195Z,990.25
2017-02-27T23:50:27.222Z,990.25
2017-02-27T23:51:27.238Z,990.23
2017-02-27T23:52:27.269Z,990.23
2017-02-27T23:53:27.308Z,990.25
2017-02-27T23:54:27.342Z,990.24
2017-02-27T23:55:27.374Z,990.3
2017-02-27T23:56:27.405Z,990.19
2017-02-27T23:57:27.437Z,990.31
2017-02-27T23:58:27.463Z,990.29
2017-02-27T23:59:27.495Z,990.35
